Time;durP1;ratioP1;P1;durP2;ratioP2;P2;SDS_P1;SDS_P2;PMS_P1;PMS_P2;Temp;Humidity;BMP_temperature;BMP_pressure;BME280_temperature;BME280_humidity;BME280_pressure;Samples;Min_cycle;Max_cycle;Signal;HPM_P1;HPM_P2
2021/12/24 00:00:22;;;;;;;4.25;3.55;;;7.70;99.90;;;;;;5090268;28;20249;-73
2021/12/24 00:02:50;;;;;;;3.63;3.00;;;7.60;99.90;;;;;;5088869;28;20224;-74
2021/12/24 00:05:19;;;;;;;3.70;3.30;;;7.60;99.90;;;;;;5090691;28;20198;-74
2021/12/24 00:07:51;;;;;;;3.53;3.10;;;7.70;99.90;;;;;;5089730;28;20212;-75
2021/12/24 00:10:24;;;;;;;3.20;2.90;;;7.80;99.90;;;;;;5090348;28;20268;-75
2021/12/24 00:12:59;;;;;;;3.38;3.08;;;7.80;99.90;;;;;;5088692;28;20220;-73
2021/12/24 00:15:49;;;;;;;3.97;2.90;;;7.80;99.90;;;;;;5087271;28;20203;-75
2021/12/24 00:18:25;;;;;;;3.63;3.20;;;7.80;99.90;;;;;;5088893;28;20196;-75
2021/12/24 00:37:23;;;;;;;3.33;3.03;;;8.00;99.90;;;;;;5090007;28;20202;-75
2021/12/24 00:39:58;;;;;;;7.30;3.80;;;8.10;99.90;;;;;;5089182;28;20203;-75
2021/12/24 00:42:25;;;;;;;4.97;3.53;;;8.20;99.90;;;;;;5089063;28;20203;-75
2021/12/24 00:44:52;;;;;;;5.05;2.97;;;8.20;99.90;;;;;;5089403;28;20204;-75
2021/12/24 00:47:18;;;;;;;4.18;3.10;;;8.20;99.90;;;;;;5088920;28;20200;-75
2021/12/24 00:49:45;;;;;;;3.50;2.97;;;8.20;99.90;;;;;;5089135;28;20214;-75
2021/12/24 00:52:31;;;;;;;4.55;2.63;;;8.30;99.90;;;;;;5089646;28;20581;-75
2021/12/24 00:55:06;;;;;;;5.15;3.50;;;8.30;99.90;;;;;;5085029;28;20326;-75
2021/12/24 00:57:34;;;;;;;3.05;2.72;;;8.30;99.90;;;;;;5088574;28;20195;-75
2021/12/24 01:00:01;;;;;;;5.20;3.20;;;8.30;99.90;;;;;;5089053;28;20200;-75
2021/12/24 01:02:28;;;;;;;3.10;2.72;;;8.30;99.90;;;;;;5088228;28;20573;-75
2021/12/24 01:04:55;;;;;;;3.10;2.75;;;8.40;99.90;;;;;;5089491;28;20207;-75
2021/12/24 01:07:22;;;;;;;3.28;2.75;;;8.40;99.90;;;;;;5089780;28;20211;-75
2021/12/24 01:09:48;;;;;;;3.17;2.88;;;8.40;99.90;;;;;;5088862;28;20231;-75
2021/12/24 01:12:17;;;;;;;6.95;2.80;;;8.40;99.90;;;;;;5088706;28;20235;-74
2021/12/24 01:14:47;;;;;;;4.47;3.08;;;8.40;99.90;;;;;;5089494;28;20608;-74
2021/12/24 01:17:23;;;;;;;3.28;2.50;;;8.40;99.90;;;;;;5088839;28;20210;-75
2021/12/24 01:19:52;;;;;;;2.88;2.58;;;8.40;99.90;;;;;;5089161;28;20593;-74
2021/12/24 01:22:57;;;;;;;3.55;3.25;;;8.40;99.90;;;;;;5087650;28;20198;-74
2021/12/24 01:25:27;;;;;;;2.78;2.58;;;8.30;99.90;;;;;;5089046;28;20641;-74
2021/12/24 01:28:28;;;;;;;3.67;3.35;;;8.30;99.90;;;;;;5088941;28;20265;-74
2021/12/24 01:39:14;;;;;;;3.55;2.70;;;8.30;99.90;;;;;;5089449;28;20218;-73
2021/12/24 01:44:28;;;;;;;3.50;2.72;;;8.30;99.90;;;;;;5093550;28;20218;-74
2021/12/24 01:46:56;;;;;;;3.03;2.72;;;8.20;99.90;;;;;;5093362;28;20239;-74
2021/12/24 01:49:23;;;;;;;4.85;2.92;;;8.20;99.90;;;;;;5092900;28;20206;-74
2021/12/24 01:51:51;;;;;;;3.92;2.90;;;8.20;99.90;;;;;;5093421;28;20200;-74
2021/12/24 01:54:18;;;;;;;3.58;2.83;;;8.10;99.90;;;;;;5093924;28;20224;-74
2021/12/24 01:56:46;;;;;;;3.80;2.80;;;8.10;99.90;;;;;;5095789;28;20206;-73
2021/12/24 01:59:13;;;;;;;3.00;2.45;;;8.00;99.90;;;;;;5095457;28;20222;-74
2021/12/24 02:01:41;;;;;;;2.78;2.10;;;8.00;99.90;;;;;;5094173;28;20218;-74
2021/12/24 02:04:11;;;;;;;3.60;3.20;;;7.90;99.90;;;;;;5093292;28;20585;-74
2021/12/24 02:06:38;;;;;;;3.60;2.50;;;7.90;99.90;;;;;;5095357;28;20618;-73
2021/12/24 02:09:05;;;;;;;4.00;2.88;;;7.90;99.90;;;;;;5094485;28;20590;-74
2021/12/24 02:11:37;;;;;;;4.50;2.80;;;7.90;99.90;;;;;;5092458;28;20223;-74
2021/12/24 02:14:04;;;;;;;3.25;2.50;;;7.90;99.90;;;;;;5092869;28;20635;-74
2021/12/24 02:16:44;;;;;;;3.38;2.35;;;7.80;99.90;;;;;;5092970;28;20697;-74
2021/12/24 02:30:22;;;;;;;2.80;2.55;;;7.70;99.90;;;;;;5092809;28;20701;-73
2021/12/24 02:32:48;;;;;;;3.38;2.40;;;7.70;99.90;;;;;;5091241;28;20227;-74
2021/12/24 02:35:15;;;;;;;4.15;3.17;;;7.70;99.90;;;;;;5092788;28;20204;-74
2021/12/24 02:37:44;;;;;;;4.65;2.78;;;7.70;99.90;;;;;;5092374;28;20204;-74
2021/12/24 02:40:12;;;;;;;3.45;3.08;;;7.80;99.90;;;;;;5092489;28;20203;-73
2021/12/24 02:42:39;;;;;;;2.97;2.55;;;7.80;99.90;;;;;;5091266;28;20223;-74
2021/12/24 02:45:07;;;;;;;3.08;2.70;;;7.80;99.90;;;;;;5094348;28;20207;-73
2021/12/24 02:47:43;;;;;;;2.63;2.10;;;7.80;99.90;;;;;;5095655;28;20208;-73
2021/12/24 02:55:55;;;;;;;2.88;2.60;;;7.70;99.90;;;;;;5010690;28;20196;-74
2021/12/24 02:58:21;;;;;;;6.93;3.00;;;7.70;99.90;;;;;;5055958;28;20199;-74
2021/12/24 03:00:48;;;;;;;3.63;2.47;;;7.70;99.90;;;;;;5092397;28;20282;-74
2021/12/24 03:03:15;;;;;;;3.35;2.85;;;7.70;99.90;;;;;;5091499;28;20613;-74
2021/12/24 03:05:42;;;;;;;3.83;2.90;;;7.60;99.90;;;;;;5092633;28;20293;-74
2021/12/24 03:08:10;;;;;;;6.20;2.80;;;7.70;99.90;;;;;;5091978;28;20220;-74
2021/12/24 03:10:37;;;;;;;3.10;2.45;;;7.70;99.90;;;;;;5092460;28;20220;-74
2021/12/24 03:13:04;;;;;;;2.33;2.13;;;7.70;99.90;;;;;;5091023;28;20220;-74
2021/12/24 03:15:32;;;;;;;3.30;2.63;;;7.70;99.90;;;;;;5092265;28;20207;-74
2021/12/24 03:18:00;;;;;;;3.45;2.60;;;7.70;99.90;;;;;;5090718;28;20203;-74
2021/12/24 03:20:32;;;;;;;3.20;2.53;;;7.70;99.90;;;;;;5092456;28;20291;-74
2021/12/24 03:23:08;;;;;;;4.07;3.10;;;7.70;99.90;;;;;;5090832;28;20252;-74
2021/12/24 03:25:36;;;;;;;2.90;2.35;;;7.70;99.90;;;;;;5091473;28;20201;-74
2021/12/24 03:28:04;;;;;;;3.10;2.72;;;7.60;99.90;;;;;;5091766;28;20247;-74
2021/12/24 03:30:31;;;;;;;6.90;2.80;;;7.70;99.90;;;;;;5091521;28;20220;-74
2021/12/24 03:32:58;;;;;;;2.53;2.33;;;7.60;99.90;;;;;;5165976;22;20227;-75
2021/12/24 03:35:24;;;;;;;3.10;2.58;;;7.60;99.90;;;;;;5111909;28;20190;-75
2021/12/24 03:37:51;;;;;;;2.97;2.40;;;7.60;99.90;;;;;;5111826;28;20199;-75
2021/12/24 03:40:18;;;;;;;3.65;2.30;;;7.60;99.90;;;;;;5112466;28;20202;-76
2021/12/24 03:42:46;;;;;;;8.50;2.75;;;7.60;99.90;;;;;;5110372;28;20223;-75
2021/12/24 03:45:23;;;;;;;4.80;2.92;;;7.50;99.90;;;;;;5111988;28;20669;-74
2021/12/24 03:47:56;;;;;;;2.80;2.30;;;7.50;99.90;;;;;;5110659;28;20301;-75
2021/12/24 03:50:26;;;;;;;3.22;2.38;;;7.40;99.90;;;;;;5111864;28;20229;-75
2021/12/24 03:53:05;;;;;;;3.22;2.72;;;7.30;99.90;;;;;;5110976;28;20257;-75
2021/12/24 03:55:31;;;;;;;2.40;2.20;;;7.20;99.90;;;;;;5111849;28;20203;-74
2021/12/24 03:57:59;;;;;;;3.60;2.50;;;7.10;99.90;;;;;;5111158;28;20202;-75
2021/12/24 04:00:28;;;;;;;3.10;2.55;;;7.10;99.90;;;;;;5111515;28;20798;-75
2021/12/24 04:02:55;;;;;;;2.88;2.67;;;7.10;99.90;;;;;;5110372;28;20223;-74
2021/12/24 04:05:22;;;;;;;3.15;2.70;;;7.10;99.90;;;;;;5111158;28;20199;-75
2021/12/24 04:07:49;;;;;;;3.28;2.55;;;7.20;99.90;;;;;;5110982;28;20207;-74
2021/12/24 04:10:25;;;;;;;3.65;2.92;;;7.20;99.90;;;;;;5111579;28;20205;-74
2021/12/24 04:12:52;;;;;;;3.25;2.58;;;7.20;99.90;;;;;;5110724;28;20678;-75
2021/12/24 04:15:20;;;;;;;4.57;2.70;;;7.30;99.90;;;;;;5111490;28;20571;-75
2021/12/24 04:17:48;;;;;;;4.10;3.30;;;7.30;99.90;;;;;;5110265;28;20218;-74
2021/12/24 04:25:43;;;;;;;3.63;2.65;;;7.50;99.90;;;;;;5110666;28;20247;-75
2021/12/24 04:28:10;;;;;;;3.58;2.78;;;7.50;99.90;;;;;;5111404;28;20198;-75
2021/12/24 04:30:44;;;;;;;3.30;2.42;;;7.50;99.90;;;;;;5110245;28;20227;-73
2021/12/24 04:33:17;;;;;;;2.83;2.60;;;7.50;99.90;;;;;;5110155;28;20233;-73
2021/12/24 04:35:55;;;;;;;4.03;3.03;;;7.50;99.90;;;;;;5110895;28;20234;-75
2021/12/24 04:38:37;;;;;;;4.60;2.78;;;7.60;99.90;;;;;;5111028;28;20565;-74
2021/12/24 04:52:09;;;;;;;3.10;2.60;;;7.50;99.90;;;;;;5110547;28;20582;-74
2021/12/24 05:02:59;;;;;;;3.75;2.80;;;7.60;99.90;;;;;;5109287;28;20369;-74
2021/12/24 05:05:36;;;;;;;3.50;2.80;;;7.50;99.90;;;;;;5110480;28;20657;-74
2021/12/24 05:10:56;;;;;;;2.85;2.60;;;7.60;99.90;;;;;;5109580;28;20226;-74
2021/12/24 05:13:23;;;;;;;3.25;2.78;;;7.70;99.90;;;;;;5110752;28;20219;-75
2021/12/24 05:15:57;;;;;;;5.25;3.13;;;7.60;99.90;;;;;;5110108;28;20245;-72
2021/12/24 05:18:48;;;;;;;2.92;2.45;;;7.70;99.90;;;;;;5114125;28;20233;-74
2021/12/24 05:24:00;;;;;;;3.50;3.20;;;7.70;99.90;;;;;;5114789;28;20347;-73
2021/12/24 05:26:27;;;;;;;4.03;2.80;;;7.60;99.90;;;;;;5114298;28;20428;-74
2021/12/24 05:28:54;;;;;;;4.57;2.60;;;7.60;99.90;;;;;;5114153;28;20226;-74
2021/12/24 05:31:21;;;;;;;3.45;2.67;;;7.70;99.90;;;;;;5113828;28;20272;-75
2021/12/24 05:33:49;;;;;;;4.93;2.78;;;7.70;99.90;;;;;;5113333;28;20806;-74
2021/12/24 05:36:16;;;;;;;3.15;2.70;;;7.70;99.90;;;;;;5114654;28;20678;-74
2021/12/24 05:38:43;;;;;;;3.75;2.75;;;7.80;99.90;;;;;;5113863;28;20207;-75
2021/12/24 05:41:11;;;;;;;4.50;2.97;;;7.80;99.90;;;;;;5113267;28;20252;-74
2021/12/24 05:43:37;;;;;;;4.95;3.20;;;7.80;99.90;;;;;;5114126;28;20230;-75
2021/12/24 05:46:04;;;;;;;3.70;3.28;;;7.90;99.90;;;;;;5113762;28;20238;-74
2021/12/24 05:48:31;;;;;;;3.30;2.95;;;8.00;99.90;;;;;;5113585;28;20205;-75
2021/12/24 05:50:59;;;;;;;4.80;3.13;;;8.20;99.90;;;;;;5112660;28;20219;-75
2021/12/24 05:53:26;;;;;;;4.88;2.88;;;8.30;99.90;;;;;;5113849;28;20245;-74
2021/12/24 05:55:53;;;;;;;3.22;2.60;;;8.30;99.90;;;;;;5113477;28;20210;-72
2021/12/24 05:58:20;;;;;;;2.70;2.50;;;8.40;99.90;;;;;;5113680;28;20210;-75
2021/12/24 06:00:48;;;;;;;2.97;2.75;;;8.40;99.90;;;;;;5112323;28;21001;-75
2021/12/24 06:03:15;;;;;;;4.15;2.85;;;8.40;99.90;;;;;;5112293;28;20701;-75
2021/12/24 06:05:43;;;;;;;7.70;3.30;;;8.40;99.90;;;;;;5113526;28;20207;-74
2021/12/24 06:08:12;;;;;;;3.38;2.42;;;8.50;99.90;;;;;;5113603;28;20237;-74
2021/12/24 06:10:39;;;;;;;5.15;3.25;;;8.50;99.90;;;;;;5112437;28;20209;-74
2021/12/24 06:13:06;;;;;;;4.90;3.10;;;8.50;99.90;;;;;;5113247;28;20284;-75
2021/12/24 06:15:41;;;;;;;3.50;2.90;;;8.50;99.90;;;;;;5112836;28;20696;-74
2021/12/24 06:18:12;;;;;;;4.50;3.33;;;8.50;99.90;;;;;;5112941;28;20306;-75
2021/12/24 06:20:41;;;;;;;3.78;3.42;;;8.60;99.90;;;;;;5113186;28;20563;-74
2021/12/24 06:23:09;;;;;;;3.38;3.05;;;8.50;99.90;;;;;;5113945;28;20223;-75
2021/12/24 06:25:38;;;;;;;3.00;2.80;;;8.60;99.90;;;;;;5113317;28;20661;-75
2021/12/24 06:28:05;;;;;;;4.70;2.72;;;8.50;99.90;;;;;;5102969;28;20200;-75
2021/12/24 06:30:32;;;;;;;4.22;2.60;;;8.50;99.90;;;;;;5092169;28;20204;-75
2021/12/24 06:33:01;;;;;;;2.95;2.65;;;8.50;99.90;;;;;;5090004;28;20226;-75
2021/12/24 06:35:28;;;;;;;2.92;2.67;;;8.50;99.90;;;;;;5092923;28;20207;-74
2021/12/24 06:37:57;;;;;;;4.35;2.70;;;8.40;99.90;;;;;;5092295;28;20206;-74
2021/12/24 06:40:24;;;;;;;4.15;2.55;;;8.40;99.90;;;;;;5092617;28;20308;-75
2021/12/24 06:42:52;;;;;;;4.50;2.92;;;8.30;99.90;;;;;;5091387;28;20269;-74
2021/12/24 06:45:22;;;;;;;3.22;2.70;;;8.20;99.90;;;;;;5092416;28;20298;-73
2021/12/24 06:47:49;;;;;;;2.85;2.55;;;8.10;99.90;;;;;;5091639;28;20310;-74
2021/12/24 06:50:16;;;;;;;5.25;2.70;;;8.10;99.90;;;;;;5092539;28;20206;-74
2021/12/24 06:52:43;;;;;;;5.15;3.75;;;8.00;99.90;;;;;;5091495;28;20577;-74
2021/12/24 06:55:10;;;;;;;3.80;3.03;;;7.90;99.90;;;;;;5091824;28;20196;-74
2021/12/24 06:57:37;;;;;;;3.10;2.80;;;7.90;99.90;;;;;;5072709;28;20665;-75
2021/12/24 07:00:08;;;;;;;4.50;3.10;;;7.90;99.90;;;;;;5072354;28;20303;-75
2021/12/24 07:02:34;;;;;;;3.88;3.13;;;7.80;99.90;;;;;;5071399;28;20192;-74
2021/12/24 07:05:01;;;;;;;2.90;2.70;;;7.80;99.90;;;;;;5072223;28;20205;-75
2021/12/24 07:07:28;;;;;;;3.22;2.63;;;7.70;99.90;;;;;;5072038;28;20208;-74
2021/12/24 07:09:54;;;;;;;7.38;2.97;;;7.70;99.90;;;;;;5071733;28;20207;-74
2021/12/24 07:12:21;;;;;;;3.95;2.95;;;7.70;99.90;;;;;;5071386;28;20707;-74
2021/12/24 07:14:49;;;;;;;3.40;3.00;;;7.70;99.90;;;;;;5071428;28;20211;-74
2021/12/24 07:17:17;;;;;;;2.95;2.70;;;7.60;99.90;;;;;;5071907;28;20691;-74
2021/12/24 07:19:44;;;;;;;2.42;2.22;;;7.60;99.90;;;;;;5071117;28;20213;-74
2021/12/24 07:22:12;;;;;;;3.30;3.00;;;7.60;99.90;;;;;;5071280;28;20204;-72
2021/12/24 07:24:39;;;;;;;3.70;3.30;;;7.60;99.90;;;;;;5071986;28;20223;-74
2021/12/24 07:27:06;;;;;;;3.53;2.95;;;7.60;99.90;;;;;;5071420;28;20257;-73
2021/12/24 07:29:38;;;;;;;5.82;3.00;;;7.60;99.90;;;;;;5071655;28;20197;-73
2021/12/24 07:32:06;;;;;;;3.53;3.00;;;7.50;99.90;;;;;;5069917;28;20216;-75
2021/12/24 07:34:35;;;;;;;4.95;2.70;;;7.50;99.90;;;;;;5071560;28;20224;-74
2021/12/24 07:37:01;;;;;;;4.75;3.42;;;7.40;99.90;;;;;;5081698;28;20211;-70
2021/12/24 07:39:28;;;;;;;2.85;2.63;;;7.50;99.90;;;;;;5090441;28;20200;-70
2021/12/24 07:41:55;;;;;;;5.05;3.63;;;7.50;99.90;;;;;;5090498;28;20192;-71
2021/12/24 07:44:22;;;;;;;4.55;3.53;;;7.60;99.90;;;;;;5090895;28;20211;-71
2021/12/24 07:46:52;;;;;;;3.05;2.70;;;7.60;99.90;;;;;;5090903;28;20200;-71
2021/12/24 07:49:30;;;;;;;5.65;3.08;;;7.60;99.90;;;;;;5091286;28;20223;-68
2021/12/24 07:52:08;;;;;;;4.15;3.17;;;7.60;99.90;;;;;;5088821;28;20580;-71
2021/12/24 07:54:37;;;;;;;3.25;2.95;;;7.50;99.90;;;;;;5088865;28;20215;-72
2021/12/24 07:57:05;;;;;;;3.10;2.78;;;7.50;99.90;;;;;;5090949;28;20223;-70
2021/12/24 07:59:31;;;;;;;3.58;2.70;;;7.40;99.90;;;;;;5088636;28;20681;-71
2021/12/24 08:01:58;;;;;;;5.10;3.60;;;7.40;99.90;;;;;;5090029;28;20198;-72
2021/12/24 08:04:25;;;;;;;4.45;3.30;;;7.50;99.90;;;;;;5090842;28;20759;-72
2021/12/24 08:06:52;;;;;;;4.03;3.28;;;7.50;99.90;;;;;;5090445;28;20198;-73
2021/12/24 08:09:20;;;;;;;4.50;3.20;;;7.50;99.90;;;;;;5088555;28;20602;-72
2021/12/24 08:11:47;;;;;;;3.00;2.72;;;7.50;99.90;;;;;;5089974;28;20228;-73
2021/12/24 08:14:14;;;;;;;5.85;2.90;;;7.60;99.90;;;;;;5091039;28;20276;-73
2021/12/24 08:16:41;;;;;;;3.72;3.22;;;7.60;99.90;;;;;;5090570;28;20200;-72
2021/12/24 08:19:07;;;;;;;5.97;3.10;;;7.60;99.90;;;;;;5090831;28;20226;-73
2021/12/24 08:21:34;;;;;;;3.55;2.72;;;7.60;99.90;;;;;;5089928;28;20245;-73
2021/12/24 08:24:01;;;;;;;3.00;2.78;;;7.60;99.90;;;;;;5090339;28;20224;-73
2021/12/24 08:26:31;;;;;;;3.63;2.92;;;7.70;99.90;;;;;;5090867;28;20200;-73
2021/12/24 08:28:58;;;;;;;3.65;3.35;;;7.70;99.90;;;;;;5090053;28;20207;-71
2021/12/24 08:31:24;;;;;;;4.35;2.92;;;7.80;99.90;;;;;;5089749;28;20294;-73
2021/12/24 08:33:51;;;;;;;4.50;2.83;;;7.80;99.90;;;;;;5089507;28;20227;-73
2021/12/24 08:36:18;;;;;;;2.97;2.53;;;7.90;99.90;;;;;;5090333;28;20200;-72
2021/12/24 08:38:44;;;;;;;5.65;2.67;;;8.00;99.90;;;;;;5090146;28;20199;-73
2021/12/24 08:41:12;;;;;;;3.10;2.80;;;8.10;99.90;;;;;;5089020;28;20210;-74
2021/12/24 08:43:40;;;;;;;3.65;2.80;;;8.10;99.90;;;;;;5089791;28;20848;-73
2021/12/24 08:46:06;;;;;;;3.60;2.80;;;8.20;99.90;;;;;;5089339;28;20202;-73
2021/12/24 08:48:33;;;;;;;2.85;2.65;;;8.20;99.90;;;;;;5089643;28;20200;-73
2021/12/24 08:51:00;;;;;;;3.75;2.90;;;8.30;99.90;;;;;;5089340;28;20210;-73
2021/12/24 08:53:27;;;;;;;3.85;2.78;;;8.30;99.90;;;;;;5094232;28;20219;-73
2021/12/24 08:55:53;;;;;;;3.17;2.65;;;8.30;99.90;;;;;;5094801;28;20227;-73
2021/12/24 08:58:20;;;;;;;3.65;2.83;;;8.30;99.90;;;;;;5094575;28;20289;-73
2021/12/24 09:00:50;;;;;;;4.03;2.50;;;8.30;99.90;;;;;;5094417;28;20200;-73
2021/12/24 09:03:16;;;;;;;4.82;3.55;;;8.30;99.90;;;;;;5094624;28;20220;-73
2021/12/24 09:05:43;;;;;;;5.30;3.20;;;8.30;99.90;;;;;;5094157;28;20220;-73
2021/12/24 09:08:10;;;;;;;4.75;3.10;;;8.30;99.90;;;;;;5094379;28;20196;-77
2021/12/24 09:10:46;;;;;;;4.05;3.05;;;8.20;99.90;;;;;;5084409;28;20315;-72
2021/12/24 09:13:16;;;;;;;3.20;2.90;;;8.10;99.90;;;;;;5089846;28;20227;-73
2021/12/24 09:15:53;;;;;;;3.33;2.95;;;8.10;99.90;;;;;;5092438;28;20282;-72
2021/12/24 09:18:21;;;;;;;5.22;2.70;;;8.10;99.90;;;;;;5093957;28;20211;-73
2021/12/24 09:20:49;;;;;;;3.53;2.75;;;8.10;99.90;;;;;;5090690;28;20199;-73
2021/12/24 09:23:18;;;;;;;3.72;2.88;;;8.10;99.90;;;;;;5092727;28;20733;-74
2021/12/24 09:25:45;;;;;;;4.10;3.70;;;8.10;99.90;;;;;;5090231;28;20249;-73
2021/12/24 09:28:16;;;;;;;4.07;3.03;;;8.00;99.90;;;;;;5093182;28;20617;-74
2021/12/24 09:30:44;;;;;;;3.95;2.63;;;8.00;99.90;;;;;;5092816;28;20206;-73
2021/12/24 09:33:13;;;;;;;3.53;2.70;;;8.00;99.90;;;;;;5092757;28;20227;-74
2021/12/24 09:35:41;;;;;;;2.90;2.65;;;8.00;99.90;;;;;;5092954;28;20200;-73
2021/12/24 09:38:09;;;;;;;4.00;3.15;;;8.10;99.90;;;;;;5092971;28;20291;-73
2021/12/24 09:40:37;;;;;;;3.38;2.80;;;8.10;99.90;;;;;;5093125;28;20235;-72
2021/12/24 09:43:05;;;;;;;8.73;3.20;;;8.10;99.90;;;;;;5092443;28;20220;-74
2021/12/24 09:45:35;;;;;;;3.28;2.97;;;8.10;99.90;;;;;;5092946;28;20207;-71
2021/12/24 09:48:04;;;;;;;2.75;2.55;;;8.00;99.90;;;;;;5092832;28;20657;-73
2021/12/24 09:50:34;;;;;;;4.18;3.17;;;8.10;99.90;;;;;;5093043;28;20735;-74
2021/12/24 09:53:02;;;;;;;3.55;2.65;;;8.00;99.90;;;;;;5091947;28;20238;-74
2021/12/24 09:55:30;;;;;;;4.35;2.92;;;8.00;99.90;;;;;;5092555;28;20200;-73
2021/12/24 09:58:01;;;;;;;3.15;2.80;;;8.00;99.90;;;;;;5092843;28;20199;-74
2021/12/24 10:00:30;;;;;;;3.72;2.75;;;8.00;99.90;;;;;;5092404;28;20553;-73
2021/12/24 10:03:03;;;;;;;3.97;2.60;;;7.90;99.90;;;;;;5091724;28;20220;-74
2021/12/24 10:05:37;;;;;;;7.05;3.45;;;7.90;99.90;;;;;;5094404;28;20210;-72
2021/12/24 10:08:07;;;;;;;5.57;3.20;;;7.90;99.90;;;;;;5112515;28;20195;-72
2021/12/24 10:10:35;;;;;;;4.03;3.25;;;7.90;99.90;;;;;;5113086;28;20203;-72
2021/12/24 10:13:34;;;;;;;3.53;3.15;;;7.90;99.90;;;;;;5107578;28;20314;-74
2021/12/24 10:16:03;;;;;;;3.60;2.95;;;7.90;99.90;;;;;;5070508;28;20216;-72
2021/12/24 10:18:33;;;;;;;4.43;3.53;;;7.90;99.90;;;;;;5088658;28;20573;-70
2021/12/24 10:21:05;;;;;;;3.03;2.72;;;7.90;99.90;;;;;;5090015;28;20298;-72
2021/12/24 10:23:46;;;;;;;3.92;3.15;;;7.90;99.90;;;;;;5090579;28;20251;-71
2021/12/24 10:26:20;;;;;;;3.70;3.30;;;7.90;99.90;;;;;;5090707;28;20678;-75
2021/12/24 10:28:57;;;;;;;6.05;3.10;;;7.90;99.90;;;;;;5090762;28;20289;-74
2021/12/24 10:31:25;;;;;;;3.53;3.22;;;8.00;99.90;;;;;;5089971;28;20199;-72
2021/12/24 10:34:11;;;;;;;3.20;2.90;;;7.90;99.90;;;;;;5089966;28;20476;-73
2021/12/24 10:37:14;;;;;;;4.40;3.08;;;7.90;99.90;;;;;;5090850;28;20231;-75
2021/12/24 10:39:44;;;;;;;3.75;3.35;;;8.00;99.90;;;;;;5090507;28;20199;-73
2021/12/24 10:42:14;;;;;;;4.50;2.70;;;8.00;99.90;;;;;;5090251;28;20563;-75
2021/12/24 10:44:43;;;;;;;4.15;2.90;;;8.00;99.90;;;;;;5089591;28;20235;-74
2021/12/24 10:47:15;;;;;;;5.32;3.03;;;7.90;99.90;;;;;;5091447;28;20261;-75
2021/12/24 10:49:56;;;;;;;3.63;2.80;;;8.00;99.90;;;;;;5090740;28;20669;-73
2021/12/24 10:52:46;;;;;;;3.00;2.78;;;8.00;99.90;;;;;;5089694;28;20316;-74
2021/12/24 10:55:16;;;;;;;3.30;2.80;;;7.90;99.90;;;;;;5090086;28;20231;-74
2021/12/24 10:57:46;;;;;;;3.47;2.72;;;7.90;99.90;;;;;;5089992;28;20258;-74
2021/12/24 11:00:21;;;;;;;4.22;2.92;;;7.90;99.90;;;;;;5090392;28;20227;-75
2021/12/24 11:02:53;;;;;;;3.90;2.80;;;7.90;99.90;;;;;;5089408;28;20223;-73
2021/12/24 11:05:26;;;;;;;2.92;2.63;;;7.90;99.90;;;;;;5089484;28;20887;-73
2021/12/24 11:07:56;;;;;;;2.53;2.30;;;7.90;99.90;;;;;;5089763;28;20200;-74
2021/12/24 11:10:26;;;;;;;2.95;2.40;;;7.90;99.90;;;;;;5090110;28;20200;-74
2021/12/24 11:12:54;;;;;;;5.95;2.80;;;7.90;99.90;;;;;;5089162;28;20226;-73
2021/12/24 11:15:28;;;;;;;2.30;2.10;;;7.90;99.90;;;;;;5089743;28;20203;-72
2021/12/24 11:17:56;;;;;;;2.22;2.03;;;7.90;99.90;;;;;;5090295;28;20218;-74
2021/12/24 11:20:24;;;;;;;3.40;2.60;;;7.90;99.90;;;;;;5087241;28;20215;-74
2021/12/24 11:23:00;;;;;;;2.97;2.47;;;7.90;99.90;;;;;;5089696;28;20211;-72
2021/12/24 11:25:28;;;;;;;2.42;2.20;;;7.90;99.90;;;;;;5091850;22;20224;-75
2021/12/24 11:27:55;;;;;;;2.63;2.35;;;7.90;99.90;;;;;;5068826;28;20215;-75
2021/12/24 11:30:23;;;;;;;2.40;2.20;;;7.90;99.90;;;;;;5070100;28;20226;-75
2021/12/24 11:32:50;;;;;;;2.35;2.15;;;8.00;99.90;;;;;;5069577;28;20233;-75
2021/12/24 11:35:18;;;;;;;3.50;2.50;;;8.00;99.90;;;;;;5069760;28;20204;-75
2021/12/24 11:37:48;;;;;;;2.25;2.05;;;8.00;99.90;;;;;;5070282;28;20581;-75
2021/12/24 11:40:19;;;;;;;2.33;2.13;;;7.90;99.90;;;;;;5069974;28;20200;-75
2021/12/24 11:42:50;;;;;;;2.60;2.40;;;7.90;99.90;;;;;;5068249;28;20734;-76
2021/12/24 11:45:18;;;;;;;2.55;2.35;;;7.90;99.90;;;;;;5069628;28;20476;-76
2021/12/24 11:47:45;;;;;;;2.10;1.90;;;7.90;99.90;;;;;;5068574;28;20211;-75
2021/12/24 11:50:12;;;;;;;2.65;2.20;;;7.90;99.90;;;;;;5070153;28;20204;-74
2021/12/24 11:52:40;;;;;;;2.60;2.20;;;7.90;99.90;;;;;;5069147;28;20587;-75
2021/12/24 11:55:07;;;;;;;3.30;2.55;;;7.90;99.90;;;;;;5069049;28;20209;-75
2021/12/24 11:57:36;;;;;;;3.60;2.10;;;7.90;99.90;;;;;;5064712;28;20207;-75
2021/12/24 12:00:13;;;;;;;2.40;2.20;;;8.00;99.90;;;;;;5068597;28;20258;-75
2021/12/24 12:02:45;;;;;;;2.40;2.20;;;8.00;99.90;;;;;;5067400;28;20216;-75
2021/12/24 12:05:18;;;;;;;2.05;1.83;;;8.10;99.90;;;;;;5069060;28;20200;-75
2021/12/24 12:07:46;;;;;;;2.30;2.10;;;8.20;99.90;;;;;;5068754;28;20207;-75
2021/12/24 12:10:13;;;;;;;2.05;1.70;;;8.20;99.90;;;;;;5069485;28;20207;-75
2021/12/24 12:12:42;;;;;;;2.63;1.80;;;8.30;99.90;;;;;;5068400;28;20220;-75
2021/12/24 12:15:30;;;;;;;1.90;1.70;;;8.30;99.90;;;;;;5069056;28;20203;-75
2021/12/24 12:17:59;;;;;;;1.90;1.80;;;8.40;99.90;;;;;;5068893;28;20429;-74
2021/12/24 12:20:44;;;;;;;2.45;2.13;;;8.50;99.90;;;;;;5069028;28;20211;-74
2021/12/24 12:23:45;;;;;;;1.58;1.45;;;8.60;99.90;;;;;;5070513;28;20216;-75
2021/12/24 12:26:33;;;;;;;1.60;1.50;;;8.60;99.90;;;;;;5056234;28;20574;-75
2021/12/24 12:29:25;;;;;;;1.55;1.45;;;8.70;99.90;;;;;;5048172;28;20224;-75
2021/12/24 12:31:56;;;;;;;1.95;1.75;;;8.60;99.90;;;;;;5059263;28;20294;-75
2021/12/24 12:35:02;;;;;;;1.35;1.25;;;8.60;99.90;;;;;;5049671;28;20228;-75
2021/12/24 12:37:32;;;;;;;1.65;1.55;;;8.60;99.90;;;;;;4986939;28;20254;-75
2021/12/24 12:40:27;;;;;;;1.52;1.30;;;8.60;99.90;;;;;;4985826;28;20616;-75
2021/12/24 12:43:14;;;;;;;1.30;1.20;;;8.60;99.90;;;;;;5029352;28;20231;-75
2021/12/24 12:46:04;;;;;;;1.55;1.40;;;8.70;99.90;;;;;;5048793;28;20713;-75
2021/12/24 12:48:55;;;;;;;1.58;1.40;;;8.80;99.90;;;;;;5048085;28;20263;-75
2021/12/24 12:51:40;;;;;;;1.63;1.33;;;8.80;99.90;;;;;;5048023;28;20205;-75
2021/12/24 12:54:32;;;;;;;1.50;1.40;;;8.90;99.90;;;;;;5034129;28;20229;-75
2021/12/24 12:57:24;;;;;;;1.50;1.40;;;8.90;99.90;;;;;;5041706;28;20205;-75
2021/12/24 13:00:22;;;;;;;1.80;1.30;;;8.90;99.90;;;;;;5068049;28;20203;-75
2021/12/24 13:03:10;;;;;;;1.40;1.25;;;9.00;99.90;;;;;;5067403;28;20228;-75
2021/12/24 13:05:59;;;;;;;1.10;1.00;;;9.00;99.90;;;;;;5068821;28;20265;-75
2021/12/24 13:08:28;;;;;;;1.40;1.30;;;9.10;99.90;;;;;;5069331;28;20200;-75
2021/12/24 13:10:57;;;;;;;1.50;1.30;;;9.10;99.90;;;;;;5068128;28;20855;-75
2021/12/24 13:13:24;;;;;;;1.83;1.33;;;9.20;99.90;;;;;;5068769;28;20241;-75
2021/12/24 13:15:50;;;;;;;1.50;1.40;;;9.10;99.90;;;;;;5066464;28;20744;-75
2021/12/24 13:18:26;;;;;;;1.85;1.55;;;9.10;99.90;;;;;;5066933;28;20290;-76
2021/12/24 13:23:41;;;;;;;2.17;1.25;;;9.00;99.90;;;;;;5047311;28;20228;-75
2021/12/24 13:26:09;;;;;;;2.00;1.80;;;8.90;99.90;;;;;;5046444;28;20204;-75
2021/12/24 13:28:52;;;;;;;2.17;1.70;;;8.90;99.90;;;;;;5046945;28;20586;-76
2021/12/24 13:31:19;;;;;;;1.70;1.60;;;8.90;99.90;;;;;;5047087;28;20205;-76
2021/12/24 13:33:48;;;;;;;1.40;1.30;;;8.80;99.90;;;;;;5046839;28;20220;-75
2021/12/24 13:36:15;;;;;;;1.85;1.63;;;8.80;99.90;;;;;;5048065;28;20205;-75
2021/12/24 13:38:42;;;;;;;1.55;1.45;;;8.70;99.90;;;;;;5047165;28;20216;-76
2021/12/24 13:41:09;;;;;;;1.70;1.55;;;8.70;99.90;;;;;;5047304;28;20656;-76
2021/12/24 13:43:37;;;;;;;1.52;1.40;;;8.60;99.90;;;;;;5054845;28;20221;-75
2021/12/24 13:46:07;;;;;;;1.52;1.42;;;8.70;99.90;;;;;;5053679;28;20212;-76
2021/12/24 13:48:47;;;;;;;1.75;1.40;;;8.70;99.90;;;;;;5052191;28;20197;-76
2021/12/24 13:56:57;;;;;;;1.90;1.60;;;8.70;99.90;;;;;;5010382;28;20217;-75
2021/12/24 13:59:25;;;;;;;1.60;1.50;;;8.70;99.90;;;;;;5042041;28;20204;-76
2021/12/24 14:01:53;;;;;;;1.60;1.50;;;8.70;99.90;;;;;;5052181;28;20197;-77
2021/12/24 14:04:21;;;;;;;1.95;1.70;;;8.70;99.90;;;;;;5051973;28;20351;-75
2021/12/24 14:06:56;;;;;;;2.58;1.40;;;8.80;99.90;;;;;;5052097;28;20213;-76
2021/12/24 14:09:24;;;;;;;1.85;1.70;;;8.70;99.90;;;;;;5050655;28;20661;-76
2021/12/24 14:11:53;;;;;;;4.90;2.00;;;8.70;99.90;;;;;;5051720;28;20205;-76
2021/12/24 14:14:25;;;;;;;4.38;2.72;;;8.70;99.90;;;;;;5052018;28;20229;-77
2021/12/24 14:17:16;;;;;;;6.10;2.30;;;8.70;99.90;;;;;;5052170;28;20304;-77
2021/12/24 14:19:49;;;;;;;2.55;1.80;;;8.70;99.90;;;;;;5051788;28;20216;-76
2021/12/24 14:22:19;;;;;;;3.13;2.05;;;8.70;99.90;;;;;;5051863;28;20244;-76
2021/12/24 14:24:54;;;;;;;2.28;1.63;;;8.70;99.90;;;;;;5052085;28;20205;-77
2021/12/24 14:27:24;;;;;;;2.88;1.80;;;8.70;99.90;;;;;;5052293;28;20208;-76
2021/12/24 14:29:57;;;;;;;2.95;2.30;;;8.70;99.90;;;;;;5052464;28;20236;-76
2021/12/24 14:32:30;;;;;;;1.80;1.40;;;8.70;99.90;;;;;;5051282;28;20258;-76
2021/12/24 14:34:59;;;;;;;2.08;1.65;;;8.70;99.90;;;;;;5052841;28;20251;-76
2021/12/24 14:37:32;;;;;;;2.13;1.80;;;8.70;99.90;;;;;;5052229;28;20209;-76
2021/12/24 14:40:02;;;;;;;2.10;1.75;;;8.70;99.90;;;;;;5052833;28;20220;-76